Main page
METAR-TAF:

METAR-TAF

Airports :

El Paso International Airport

El Paso, Texas, United States

latitude: 31-48-40N, longitude: 106-22-33W, elevation: 3956 ft

Current weather observation

The report was made 1 hour and 15 minutes ago, at 15:51 UTC
Calm wind
Temperature 88°F
Humidity 31%
Pressure 29.96 in. Hg
Visibility: 10 miles
Clear sky

METAR: KELP 151551Z 00000KT 10SM CLR 31/12 A2996 RMK AO2 SLP057 T03110122

Time: 12:06 (17:06 UTC)

Forecast

The report was made 5 hours and 46 minutes ago, at 11:20 UTC
Forecast valid from 15 at 12 UTC to 16 at 12 UTC
Wind 7 mph from the North/Northeast
Visibility: 6 miles
Clear sky
From 15 at 1700 UTC
Wind 9 mph from the West/Southwest with gusts up to 16 mph
Visibility: 6 miles
Clear sky
From 16 at 0300 UTC
Wind 5 mph from the West
Visibility: 6 miles
Clear sky

TAF: KELP 151120Z 1512/1612 02006KT P6SM SKC FM151700 25008G14KT P6SM SKC FM160300 27004KT P6SM SKC

Weather observations and forecasts of more than 4000 airports (METAR and TAF reports).

The available stations are represented by yellow and red dots on the map.

Hover mouse over dot to see the name of the station.

Then click to see weather observations and forecasts.

To change the map : click on the green buttons with a black cross to zoom in, on the green button with a dash to zoom out, or on the green arrows for adjacent maps.


METAR-TAF: